createdAt,value
2017-04-16T00:00:16.822Z,9.02
2017-04-16T00:00:42.934Z,8.95
2017-04-16T00:01:09.067Z,9.06
2017-04-16T00:01:35.258Z,9.03
2017-04-16T00:02:01.343Z,8.87
2017-04-16T00:02:27.490Z,8.99
2017-04-16T00:02:53.593Z,8.88
2017-04-16T00:03:19.768Z,8.91
2017-04-16T00:03:45.876Z,9
2017-04-16T00:04:12.002Z,8.95
2017-04-16T00:04:38.266Z,8.88
2017-04-16T00:05:04.381Z,8.95
2017-04-16T00:05:30.565Z,8.91
2017-04-16T00:05:56.666Z,8.97
2017-04-16T00:06:22.879Z,8.99
2017-04-16T00:06:48.997Z,9.02
2017-04-16T00:07:15.098Z,8.97
2017-04-16T00:07:41.225Z,8.97
2017-04-16T00:08:07.305Z,8.95
2017-04-16T00:08:33.432Z,9
2017-04-16T00:08:59.539Z,8.97
2017-04-16T00:09:25.667Z,8.92
2017-04-16T00:09:51.772Z,9
2017-04-16T00:10:17.899Z,9
2017-04-16T00:10:44.026Z,8.97
2017-04-16T00:11:10.107Z,8.97
2017-04-16T00:11:36.210Z,8.94
2017-04-16T00:12:02.314Z,8.87
2017-04-16T00:12:28.440Z,8.87
2017-04-16T00:12:54.569Z,8.89
2017-04-16T00:13:20.708Z,8.99
2017-04-16T00:13:46.835Z,8.88
2017-04-16T00:14:12.939Z,8.91
2017-04-16T00:14:39.067Z,8.91
2017-04-16T00:15:05.147Z,8.95
2017-04-16T00:15:31.229Z,8.97
2017-04-16T00:15:57.317Z,8.88
2017-04-16T00:16:23.392Z,8.89
2017-04-16T00:16:49.497Z,8.87
2017-04-16T00:17:15.601Z,8.95
2017-04-16T00:17:41.685Z,8.91
2017-04-16T00:18:07.812Z,8.85
2017-04-16T00:18:33.930Z,8.89
2017-04-16T00:19:00.082Z,8.97
2017-04-16T00:19:26.418Z,8.89
2017-04-16T00:19:52.500Z,9
2017-04-16T00:20:18.582Z,9.02
2017-04-16T00:20:44.686Z,9
2017-04-16T00:21:10.765Z,8.97
2017-04-16T00:21:36.995Z,8.97
2017-04-16T00:22:03.079Z,8.85
2017-04-16T00:22:29.160Z,8.88
2017-04-16T00:22:55.349Z,8.89
2017-04-16T00:23:21.453Z,8.94
2017-04-16T00:23:47.535Z,8.97
2017-04-16T00:24:13.618Z,9
2017-04-16T00:24:39.702Z,8.85
2017-04-16T00:25:05.838Z,8.88
2017-04-16T00:25:31.964Z,8.84
2017-04-16T00:25:58.048Z,8.91
2017-04-16T00:26:24.177Z,8.95
2017-04-16T00:26:50.260Z,8.94
2017-04-16T00:27:16.340Z,8.94
2017-04-16T00:27:42.441Z,8.94
2017-04-16T00:28:08.566Z,8.99
2017-04-16T00:28:34.671Z,8.92
2017-04-16T00:29:00.844Z,8.95
2017-04-16T00:29:26.951Z,8.89
2017-04-16T00:29:53.057Z,8.85
2017-04-16T00:30:19.178Z,8.94
2017-04-16T00:30:45.264Z,8.97
2017-04-16T00:31:11.365Z,8.97
2017-04-16T00:31:37.445Z,8.99
2017-04-16T00:32:03.552Z,8.91
2017-04-16T00:32:29.656Z,9.08
2017-04-16T00:32:55.741Z,8.95
2017-04-16T00:33:21.842Z,8.89
2017-04-16T00:33:47.995Z,9.1
2017-04-16T00:34:14.122Z,9.04
2017-04-16T00:34:40.252Z,9.03
2017-04-16T00:35:06.384Z,9.03
2017-04-16T00:35:32.564Z,9.06
2017-04-16T00:35:58.647Z,9.1
2017-04-16T00:36:24.729Z,8.95
2017-04-16T00:36:50.807Z,9.06
2017-04-16T00:37:16.991Z,9
2017-04-16T00:37:43.070Z,8.99
2017-04-16T00:38:09.245Z,9.04
2017-04-16T00:38:35.347Z,9.04
2017-04-16T00:39:01.449Z,9.04
2017-04-16T00:39:27.532Z,9.03
2017-04-16T00:39:53.660Z,9.1
2017-04-16T00:40:19.838Z,9.02
2017-04-16T00:40:45.949Z,9.02
2017-04-16T00:41:12.048Z,9.1
2017-04-16T00:41:38.152Z,9.08
2017-04-16T00:42:04.300Z,9.02
2017-04-16T00:42:30.380Z,9.03
2017-04-16T00:42:56.509Z,9.18
2017-04-16T00:43:22.641Z,9.14
2017-04-16T00:43:48.766Z,9.11
2017-04-16T00:44:14.849Z,9.06
2017-04-16T00:44:41.018Z,9.1
2017-04-16T00:45:07.122Z,9.1
2017-04-16T00:45:33.235Z,9.06
2017-04-16T00:45:59.339Z,9.06
2017-04-16T00:46:25.423Z,9.02
2017-04-16T00:46:51.529Z,9.03
2017-04-16T00:47:17.633Z,9.11
2017-04-16T00:47:43.759Z,9.06
2017-04-16T00:48:09.885Z,9.13
2017-04-16T00:48:36.057Z,9.02
2017-04-16T00:49:02.158Z,8.89
2017-04-16T00:49:28.264Z,8.95
2017-04-16T00:49:54.369Z,9.04
2017-04-16T00:50:20.473Z,9.02
2017-04-16T00:50:46.555Z,9.04
2017-04-16T00:51:12.636Z,9.1
2017-04-16T00:51:38.718Z,9.06
2017-04-16T00:52:04.844Z,9.16
2017-04-16T00:52:30.954Z,9.11
2017-04-16T00:52:57.129Z,9.02
2017-04-16T00:53:23.318Z,9
2017-04-16T00:53:49.488Z,9.03
2017-04-16T00:54:15.616Z,9.08
2017-04-16T00:54:41.724Z,9.08
2017-04-16T00:55:07.833Z,9.06
2017-04-16T00:55:33.933Z,9.02
2017-04-16T00:56:00.015Z,9.03
2017-04-16T00:56:26.130Z,9.02
2017-04-16T00:56:52.220Z,9.02
2017-04-16T00:57:18.303Z,9.1
2017-04-16T00:57:44.433Z,9.13
2017-04-16T00:58:10.587Z,9.02
2017-04-16T00:58:36.668Z,9.08
2017-04-16T00:59:02.779Z,8.89
2017-04-16T00:59:28.860Z,9.02
2017-04-16T00:59:55.034Z,8.99
2017-04-16T01:00:21.151Z,9.1
2017-04-16T01:00:47.267Z,9.1
2017-04-16T01:01:13.359Z,9.03
2017-04-16T01:01:39.442Z,9.06
2017-04-16T01:02:05.532Z,9.08
2017-04-16T01:02:31.614Z,9.11
2017-04-16T01:02:57.721Z,9.04
2017-04-16T01:03:23.869Z,9.13
2017-04-16T01:03:50.012Z,9.16
2017-04-16T01:04:16.248Z,9.1
2017-04-16T01:04:42.327Z,9.02
2017-04-16T01:05:08.485Z,9.1
2017-04-16T01:05:34.566Z,9.04
2017-04-16T01:06:00.647Z,9.08
2017-04-16T01:06:26.752Z,9.1
2017-04-16T01:06:52.883Z,9.02
2017-04-16T01:07:19.014Z,9
2017-04-16T01:07:45.143Z,9.06
2017-04-16T01:08:11.251Z,9.06
2017-04-16T01:08:37.379Z,8.92
2017-04-16T01:09:03.615Z,8.99
2017-04-16T01:09:29.742Z,9.08
2017-04-16T01:09:56.011Z,9.06
2017-04-16T01:10:22.133Z,9
2017-04-16T01:10:48.215Z,9.1
2017-04-16T01:11:14.326Z,9.03
2017-04-16T01:11:40.400Z,9.08
2017-04-16T01:12:06.503Z,9.03
2017-04-16T01:12:32.607Z,8.99
2017-04-16T01:12:58.712Z,8.88
2017-04-16T01:13:24.841Z,9.06
2017-04-16T01:13:50.923Z,9.03
2017-04-16T01:14:17.049Z,8.99
2017-04-16T01:14:43.221Z,9.03
2017-04-16T01:15:09.303Z,9.1
2017-04-16T01:15:35.403Z,9.02
2017-04-16T01:16:01.527Z,8.89
2017-04-16T01:16:27.608Z,8.99
2017-04-16T01:16:53.688Z,8.99
2017-04-16T01:17:19.765Z,8.97
2017-04-16T01:17:45.871Z,8.95
2017-04-16T01:18:11.990Z,8.85
2017-04-16T01:18:38.105Z,8.85
2017-04-16T01:19:04.249Z,8.94
2017-04-16T01:19:30.316Z,8.85
2017-04-16T01:19:56.435Z,8.88
2017-04-16T01:20:22.494Z,8.85
2017-04-16T01:20:48.603Z,8.85
2017-04-16T01:21:14.686Z,8.84
2017-04-16T01:21:40.778Z,8.89
2017-04-16T01:22:06.900Z,8.94
2017-04-16T01:22:32.981Z,8.92
2017-04-16T01:22:59.060Z,8.85
2017-04-16T01:23:25.248Z,8.87
2017-04-16T01:23:51.329Z,8.82
2017-04-16T01:24:17.434Z,8.82
2017-04-16T01:24:43.539Z,8.82
2017-04-16T01:25:09.667Z,8.85
2017-04-16T01:25:35.769Z,8.82
2017-04-16T01:26:01.852Z,8.84
2017-04-16T01:26:27.934Z,8.88
2017-04-16T01:26:54.037Z,8.85
2017-04-16T01:27:20.148Z,8.85
2017-04-16T01:27:46.253Z,8.88
2017-04-16T01:28:12.384Z,8.87
2017-04-16T01:28:38.560Z,8.85
2017-04-16T01:29:04.642Z,8.91
2017-04-16T01:29:30.747Z,8.95
2017-04-16T01:29:56.852Z,8.88
2017-04-16T01:30:22.932Z,8.89
2017-04-16T01:30:49.013Z,8.89
2017-04-16T01:31:15.096Z,8.84
2017-04-16T01:31:41.203Z,8.85
2017-04-16T01:32:07.320Z,8.87
2017-04-16T01:32:33.405Z,8.81
2017-04-16T01:32:59.488Z,8.82
2017-04-16T01:33:25.591Z,8.85
2017-04-16T01:33:51.708Z,8.85
2017-04-16T01:34:17.880Z,8.82
2017-04-16T01:34:44.105Z,8.85
2017-04-16T01:35:10.211Z,8.87
2017-04-16T01:35:36.318Z,8.78
2017-04-16T01:36:02.415Z,8.76
2017-04-16T01:36:28.524Z,8.76
2017-04-16T01:36:54.653Z,8.82
2017-04-16T01:37:20.732Z,8.74
2017-04-16T01:37:46.837Z,8.76
2017-04-16T01:38:13.077Z,8.69
2017-04-16T01:38:39.227Z,8.71
2017-04-16T01:39:05.310Z,8.7
2017-04-16T01:39:31.452Z,8.71
2017-04-16T01:39:57.591Z,8.73
2017-04-16T01:40:23.705Z,8.76
2017-04-16T01:40:49.839Z,8.79
2017-04-16T01:41:15.918Z,8.84
2017-04-16T01:41:42.002Z,8.88
2017-04-16T01:42:08.090Z,8.73
2017-04-16T01:42:34.238Z,8.85
2017-04-16T01:43:00.366Z,8.85
2017-04-16T01:43:26.490Z,8.79
2017-04-16T01:43:52.596Z,8.78
2017-04-16T01:44:18.701Z,8.81
2017-04-16T01:44:44.874Z,8.78
2017-04-16T01:45:10.959Z,8.81
2017-04-16T01:45:37.064Z,8.76
2017-04-16T01:46:03.179Z,8.76
2017-04-16T01:46:29.294Z,8.74
2017-04-16T01:46:55.397Z,8.7
2017-04-16T01:47:21.483Z,8.6
2017-04-16T01:47:47.642Z,8.66
2017-04-16T01:48:13.777Z,8.6
2017-04-16T01:48:39.908Z,8.61
2017-04-16T01:49:06.054Z,8.63
2017-04-16T01:49:32.171Z,8.71
2017-04-16T01:49:58.280Z,8.71
2017-04-16T01:50:24.399Z,8.71
2017-04-16T01:50:50.488Z,8.66
2017-04-16T01:51:16.579Z,8.7
2017-04-16T01:51:42.680Z,8.6
2017-04-16T01:52:08.765Z,8.6
2017-04-16T01:52:34.887Z,8.7
2017-04-16T01:53:00.986Z,8.69
2017-04-16T01:53:27.091Z,8.69
2017-04-16T01:53:53.245Z,8.71
2017-04-16T01:54:19.375Z,8.78
2017-04-16T01:54:45.454Z,8.74
2017-04-16T01:55:11.582Z,8.81
2017-04-16T01:55:37.688Z,8.79
2017-04-16T01:56:03.794Z,8.79
2017-04-16T01:56:29.865Z,8.74
2017-04-16T01:56:56.017Z,8.79
2017-04-16T01:57:22.095Z,8.71
2017-04-16T01:57:48.264Z,8.69
2017-04-16T01:58:14.423Z,8.7
2017-04-16T01:58:40.568Z,8.73
2017-04-16T01:59:06.657Z,8.71
2017-04-16T01:59:32.778Z,8.73
2017-04-16T01:59:58.880Z,8.71
2017-04-16T02:00:24.980Z,8.73
2017-04-16T02:00:51.121Z,8.6
2017-04-16T02:01:17.195Z,8.61
2017-04-16T02:01:43.318Z,8.58
2017-04-16T02:02:09.414Z,8.6
2017-04-16T02:02:35.538Z,8.56
2017-04-16T02:03:01.655Z,8.63
2017-04-16T02:03:27.763Z,8.64
2017-04-16T02:03:53.927Z,8.55
2017-04-16T02:04:20.041Z,8.53
2017-04-16T02:04:46.157Z,8.53
2017-04-16T02:05:12.287Z,8.61
2017-04-16T02:05:38.376Z,8.53
2017-04-16T02:06:04.497Z,8.52
2017-04-16T02:06:30.579Z,8.51
2017-04-16T02:06:56.706Z,8.51
2017-04-16T02:07:22.788Z,8.51
2017-04-16T02:07:48.954Z,8.51
2017-04-16T02:08:15.078Z,8.51
2017-04-16T02:08:41.205Z,8.44
2017-04-16T02:09:07.360Z,8.42
2017-04-16T02:09:33.506Z,8.51
2017-04-16T02:09:59.594Z,8.45
2017-04-16T02:10:25.710Z,8.46
2017-04-16T02:10:51.837Z,8.44
2017-04-16T02:11:17.917Z,8.46
2017-04-16T02:11:44.039Z,8.41
2017-04-16T02:12:10.241Z,8.42
2017-04-16T02:12:36.328Z,8.41
2017-04-16T02:13:02.555Z,8.42
2017-04-16T02:13:28.709Z,8.36
2017-04-16T02:13:54.851Z,8.42
2017-04-16T02:14:20.978Z,8.37
2017-04-16T02:14:47.080Z,8.31
2017-04-16T02:15:13.240Z,8.31
2017-04-16T02:15:39.402Z,8.37
2017-04-16T02:16:05.503Z,8.38
2017-04-16T02:16:31.632Z,8.41
2017-04-16T02:16:57.719Z,8.38
2017-04-16T02:17:23.829Z,8.41
2017-04-16T02:17:49.909Z,8.41
2017-04-16T02:18:16.017Z,8.37
2017-04-16T02:18:42.127Z,8.44
2017-04-16T02:19:08.260Z,8.33
2017-04-16T02:19:34.376Z,8.44
2017-04-16T02:20:00.466Z,8.41
2017-04-16T02:20:26.571Z,8.45
2017-04-16T02:20:52.697Z,8.41
2017-04-16T02:21:18.786Z,8.42
2017-04-16T02:21:44.869Z,8.48
2017-04-16T02:22:11.004Z,8.45
2017-04-16T02:22:37.085Z,8.52
2017-04-16T02:23:03.169Z,8.51
2017-04-16T02:23:29.323Z,8.53
2017-04-16T02:23:55.429Z,8.55
2017-04-16T02:24:21.581Z,8.45
2017-04-16T02:24:47.710Z,8.48
2017-04-16T02:25:13.817Z,8.45
2017-04-16T02:25:39.909Z,8.46
2017-04-16T02:26:05.985Z,8.42
2017-04-16T02:26:32.072Z,8.37
2017-04-16T02:26:58.177Z,8.44
2017-04-16T02:27:24.258Z,8.44
2017-04-16T02:27:50.364Z,8.46
2017-04-16T02:28:16.465Z,8.46
2017-04-16T02:28:42.576Z,8.49
2017-04-16T02:29:08.678Z,8.48
2017-04-16T02:29:34.742Z,8.45
2017-04-16T02:30:00.971Z,8.45
2017-04-16T02:30:27.057Z,8.33
2017-04-16T02:30:53.186Z,8.38
2017-04-16T02:31:19.292Z,8.38
2017-04-16T02:31:45.382Z,8.34
2017-04-16T02:32:11.520Z,8.41
2017-04-16T02:32:37.626Z,8.42
2017-04-16T02:33:03.755Z,8.37
2017-04-16T02:33:29.857Z,8.44
2017-04-16T02:33:55.985Z,8.42
2017-04-16T02:34:22.113Z,8.36
2017-04-16T02:34:48.240Z,8.33
2017-04-16T02:35:14.337Z,8.41
2017-04-16T02:35:40.461Z,8.36
2017-04-16T02:36:06.593Z,8.31
2017-04-16T02:36:32.702Z,8.28
2017-04-16T02:36:58.783Z,8.3
2017-04-16T02:37:24.870Z,8.3
2017-04-16T02:37:51.002Z,8.37
2017-04-16T02:38:17.110Z,8.33
2017-04-16T02:38:43.211Z,8.33
2017-04-16T02:39:09.383Z,8.37
2017-04-16T02:39:35.465Z,8.36
2017-04-16T02:40:01.566Z,8.34
2017-04-16T02:40:27.695Z,8.34
2017-04-16T02:40:53.876Z,8.41
2017-04-16T02:41:20.111Z,8.36
2017-04-16T02:41:46.186Z,8.41
2017-04-16T02:42:12.284Z,8.38
2017-04-16T02:42:38.384Z,8.34
2017-04-16T02:43:04.514Z,8.31
2017-04-16T02:43:30.617Z,8.3
2017-04-16T02:43:56.766Z,8.31
2017-04-16T02:44:22.873Z,8.28
2017-04-16T02:44:48.997Z,8.3
2017-04-16T02:45:15.088Z,8.33
2017-04-16T02:45:41.190Z,8.3
2017-04-16T02:46:07.265Z,8.27
2017-04-16T02:46:33.377Z,8.3
2017-04-16T02:46:59.456Z,8.28
2017-04-16T02:47:25.568Z,8.27
2017-04-16T02:47:51.725Z,8.27
2017-04-16T02:48:17.875Z,8.28
2017-04-16T02:48:44.026Z,8.3
2017-04-16T02:49:10.190Z,8.33
2017-04-16T02:49:36.310Z,8.27
2017-04-16T02:50:02.441Z,8.27
2017-04-16T02:50:28.525Z,8.3
2017-04-16T02:50:54.608Z,8.33
2017-04-16T02:51:20.735Z,8.37
2017-04-16T02:51:46.852Z,8.3
2017-04-16T02:52:12.955Z,8.36
2017-04-16T02:52:39.040Z,8.36
2017-04-16T02:53:05.248Z,8.31
2017-04-16T02:53:31.369Z,8.3
2017-04-16T02:53:57.491Z,8.28
2017-04-16T02:54:23.687Z,8.37
2017-04-16T02:54:49.811Z,8.27
2017-04-16T02:55:15.894Z,8.26
2017-04-16T02:55:41.977Z,8.28
2017-04-16T02:56:08.058Z,8.33
2017-04-16T02:56:34.162Z,8.28
2017-04-16T02:57:00.301Z,8.27
2017-04-16T02:57:26.432Z,8.28
2017-04-16T02:57:52.518Z,8.28
2017-04-16T02:58:18.662Z,8.34
2017-04-16T02:58:44.779Z,8.24
2017-04-16T02:59:10.872Z,8.28
2017-04-16T02:59:37.023Z,8.28
2017-04-16T03:00:03.133Z,8.15
2017-04-16T03:00:29.219Z,8.16
2017-04-16T03:00:55.395Z,8.18
2017-04-16T03:01:21.500Z,8.3
2017-04-16T03:01:47.583Z,8.27
2017-04-16T03:02:13.754Z,8.3
2017-04-16T03:02:39.870Z,8.28
2017-04-16T03:03:05.952Z,8.23
2017-04-16T03:03:32.036Z,8.27
2017-04-16T03:03:58.144Z,8.27
2017-04-16T03:04:24.268Z,8.23
2017-04-16T03:04:50.371Z,8.16
2017-04-16T03:05:16.479Z,8.18
2017-04-16T03:05:42.556Z,8.26
2017-04-16T03:06:08.709Z,8.23
2017-04-16T03:06:34.786Z,8.15
2017-04-16T03:07:00.870Z,8.19
2017-04-16T03:07:26.971Z,8.23
2017-04-16T03:07:53.120Z,8.18
2017-04-16T03:08:19.245Z,8.15
2017-04-16T03:08:45.326Z,8.16
2017-04-16T03:09:11.456Z,8.18
2017-04-16T03:09:37.563Z,8.2
2017-04-16T03:10:03.645Z,8.18
2017-04-16T03:10:29.729Z,8.18
2017-04-16T03:10:55.830Z,8.15
2017-04-16T03:11:21.938Z,8.06
2017-04-16T03:11:48.015Z,8.1
2017-04-16T03:12:14.118Z,8.05
2017-04-16T03:12:40.223Z,8.09
2017-04-16T03:13:06.330Z,8.1
2017-04-16T03:13:32.463Z,8.1
2017-04-16T03:13:58.590Z,8.12
2017-04-16T03:14:24.718Z,8.12
2017-04-16T03:14:50.801Z,8.1
2017-04-16T03:15:16.931Z,8.1
2017-04-16T03:15:43.082Z,8.08
2017-04-16T03:16:09.166Z,8.12
2017-04-16T03:16:35.275Z,8.06
2017-04-16T03:17:01.358Z,8.09
2017-04-16T03:17:27.444Z,8.05
2017-04-16T03:17:53.573Z,8.1
2017-04-16T03:18:19.764Z,8.08
2017-04-16T03:18:45.916Z,8.12
2017-04-16T03:19:12.068Z,8.08
2017-04-16T03:19:38.172Z,8.13
2017-04-16T03:20:04.255Z,8.16
2017-04-16T03:20:30.532Z,8.18
2017-04-16T03:20:56.612Z,8.12
2017-04-16T03:21:22.718Z,8.16
2017-04-16T03:21:48.822Z,8.09
2017-04-16T03:22:14.917Z,8.08
2017-04-16T03:22:40.996Z,8.1
2017-04-16T03:23:07.100Z,8.13
2017-04-16T03:23:33.253Z,8.1
2017-04-16T03:23:59.381Z,8.09
2017-04-16T03:24:25.509Z,8.05
2017-04-16T03:24:51.612Z,8.08
2017-04-16T03:25:17.695Z,8.01
2017-04-16T03:25:43.804Z,8.08
2017-04-16T03:26:09.917Z,8.08
2017-04-16T03:26:35.994Z,8.12
2017-04-16T03:27:02.101Z,8.1
2017-04-16T03:27:28.204Z,8.1
2017-04-16T03:27:54.282Z,8.09
2017-04-16T03:28:20.410Z,8.1
2017-04-16T03:28:46.563Z,8.06
2017-04-16T03:29:12.665Z,8.06
2017-04-16T03:29:38.791Z,8.09
2017-04-16T03:30:04.873Z,8.01
2017-04-16T03:30:30.953Z,8.01
2017-04-16T03:30:57.056Z,8
2017-04-16T03:31:23.138Z,8.03
2017-04-16T03:31:49.243Z,7.98
2017-04-16T03:32:15.348Z,8.05
2017-04-16T03:32:41.478Z,7.98
2017-04-16T03:33:07.609Z,8
2017-04-16T03:33:33.755Z,7.97
2017-04-16T03:33:59.884Z,7.95
2017-04-16T03:34:25.990Z,8
2017-04-16T03:34:52.095Z,8.03
2017-04-16T03:35:18.178Z,8.01
2017-04-16T03:35:44.260Z,7.97
2017-04-16T03:36:10.367Z,8
2017-04-16T03:36:36.448Z,7.94
2017-04-16T03:37:02.527Z,7.97
2017-04-16T03:37:28.633Z,8
2017-04-16T03:37:54.715Z,7.98
2017-04-16T03:38:20.824Z,8.01
2017-04-16T03:38:46.929Z,7.91
2017-04-16T03:39:13.031Z,7.97
2017-04-16T03:39:39.138Z,7.95
2017-04-16T03:40:05.240Z,7.95
2017-04-16T03:40:31.343Z,8
2017-04-16T03:40:57.426Z,7.97
2017-04-16T03:41:23.505Z,7.98
2017-04-16T03:41:49.609Z,8
2017-04-16T03:42:15.736Z,8.05
2017-04-16T03:42:41.862Z,8
2017-04-16T03:43:07.941Z,7.91
2017-04-16T03:43:34.048Z,8
2017-04-16T03:44:00.153Z,7.93
2017-04-16T03:44:26.305Z,8.03
2017-04-16T03:44:52.454Z,7.94
2017-04-16T03:45:18.559Z,7.95
2017-04-16T03:45:44.665Z,7.98
2017-04-16T03:46:10.794Z,7.97
2017-04-16T03:46:36.877Z,8.01
2017-04-16T03:47:02.958Z,8
2017-04-16T03:47:29.037Z,8.03
2017-04-16T03:47:55.142Z,8.03
2017-04-16T03:48:21.223Z,7.97
2017-04-16T03:48:47.331Z,8
2017-04-16T03:49:13.459Z,8.1
2017-04-16T03:49:39.542Z,7.98
2017-04-16T03:50:05.647Z,8
2017-04-16T03:50:31.725Z,7.98
2017-04-16T03:50:57.850Z,7.97
2017-04-16T03:51:23.955Z,7.98
2017-04-16T03:51:50.037Z,7.98
2017-04-16T03:52:16.138Z,8
2017-04-16T03:52:42.264Z,8
2017-04-16T03:53:08.425Z,8.01
2017-04-16T03:53:34.529Z,7.95
2017-04-16T03:54:00.660Z,8
2017-04-16T03:54:26.763Z,7.98
2017-04-16T03:54:52.867Z,8.08
2017-04-16T03:55:18.971Z,8.12
2017-04-16T03:55:45.049Z,8.08
2017-04-16T03:56:11.153Z,8.15
2017-04-16T03:56:37.235Z,8.08
2017-04-16T03:57:03.313Z,8.12
2017-04-16T03:57:29.418Z,8.08
2017-04-16T03:57:55.514Z,8.1
2017-04-16T03:58:21.619Z,8.05
2017-04-16T03:58:47.723Z,8.1
2017-04-16T03:59:13.871Z,8.06
2017-04-16T03:59:39.996Z,8.12
2017-04-16T04:00:06.076Z,8.09
2017-04-16T04:00:32.183Z,8.13
2017-04-16T04:00:58.288Z,8.1
2017-04-16T04:01:24.544Z,8.12
2017-04-16T04:01:50.625Z,8.15
2017-04-16T04:02:16.708Z,8.06
2017-04-16T04:02:42.810Z,7.97
2017-04-16T04:03:08.890Z,8.05
2017-04-16T04:03:35.018Z,8.05
2017-04-16T04:04:01.167Z,8.01
2017-04-16T04:04:27.249Z,8.09
2017-04-16T04:04:53.330Z,8.08
2017-04-16T04:05:19.432Z,8.09
2017-04-16T04:05:45.508Z,8.06
2017-04-16T04:06:11.588Z,8.08
2017-04-16T04:06:37.665Z,8.08
2017-04-16T04:07:03.746Z,8.09
2017-04-16T04:07:29.875Z,8.16
2017-04-16T04:07:55.982Z,8.08
2017-04-16T04:08:22.108Z,8.1
2017-04-16T04:08:48.260Z,8.12
2017-04-16T04:09:14.410Z,7.98
2017-04-16T04:09:40.515Z,7.97
2017-04-16T04:10:06.622Z,8
2017-04-16T04:10:32.727Z,8.01
2017-04-16T04:10:58.809Z,8.05
2017-04-16T04:11:25.033Z,8.01
2017-04-16T04:11:51.140Z,8.05
2017-04-16T04:12:17.245Z,8.06
2017-04-16T04:12:43.351Z,8.01
2017-04-16T04:13:09.478Z,8.09
2017-04-16T04:13:35.630Z,8.09
2017-04-16T04:14:01.756Z,8.09
2017-04-16T04:14:27.863Z,8.1
2017-04-16T04:14:54.074Z,8.03
2017-04-16T04:15:20.180Z,8.1
2017-04-16T04:15:46.467Z,8.08
2017-04-16T04:16:12.572Z,8.1
2017-04-16T04:16:38.698Z,8.08
2017-04-16T04:17:04.826Z,8.08
2017-04-16T04:17:30.928Z,8.15
2017-04-16T04:17:57.030Z,8.1
2017-04-16T04:18:23.112Z,8.15
2017-04-16T04:18:49.240Z,8.09
2017-04-16T04:19:15.367Z,8
2017-04-16T04:19:41.520Z,8.08
2017-04-16T04:20:07.693Z,8.12
2017-04-16T04:20:33.906Z,8.08
2017-04-16T04:20:59.989Z,8.09
2017-04-16T04:21:26.069Z,8.15
2017-04-16T04:21:52.172Z,8.16
2017-04-16T04:22:18.252Z,8.13
2017-04-16T04:22:44.355Z,8.06
2017-04-16T04:23:10.505Z,8.15
2017-04-16T04:23:36.585Z,8.08
2017-04-16T04:24:02.667Z,8.13
2017-04-16T04:24:28.771Z,8.06
2017-04-16T04:24:54.851Z,8.08
2017-04-16T04:25:20.954Z,8.13
2017-04-16T04:25:47.036Z,8.15
2017-04-16T04:26:13.175Z,8.12
2017-04-16T04:26:39.253Z,8.09
2017-04-16T04:27:05.336Z,8.15
2017-04-16T04:27:31.441Z,8.01
2017-04-16T04:27:57.571Z,8.09
2017-04-16T04:28:23.700Z,8.08
2017-04-16T04:28:49.807Z,8.13
2017-04-16T04:29:15.959Z,8.09
2017-04-16T04:29:42.089Z,8
2017-04-16T04:30:08.170Z,8.05
2017-04-16T04:30:34.294Z,8
2017-04-16T04:31:00.373Z,7.98
2017-04-16T04:31:26.452Z,8.09
2017-04-16T04:31:52.533Z,8.06
2017-04-16T04:32:18.613Z,8.06
2017-04-16T04:32:44.714Z,8.15
2017-04-16T04:33:10.796Z,8.12
2017-04-16T04:33:36.921Z,8.13
2017-04-16T04:34:03.144Z,8.15
2017-04-16T04:34:29.247Z,8.15
2017-04-16T04:34:55.377Z,8.12
2017-04-16T04:35:21.505Z,8.19
2017-04-16T04:35:47.610Z,8.2
2017-04-16T04:36:13.736Z,8.16
2017-04-16T04:36:39.864Z,8.19
2017-04-16T04:37:06.017Z,8.16
2017-04-16T04:37:32.160Z,8.18
2017-04-16T04:37:58.307Z,8.19
2017-04-16T04:38:24.410Z,8.12
2017-04-16T04:38:50.489Z,8.16
2017-04-16T04:39:16.616Z,8.24
2017-04-16T04:39:42.697Z,8.15
2017-04-16T04:40:08.805Z,8.26
2017-04-16T04:40:34.911Z,8.28
2017-04-16T04:41:00.993Z,8.23
2017-04-16T04:41:27.073Z,8.18
2017-04-16T04:41:53.177Z,8.2
2017-04-16T04:42:19.283Z,8.2
2017-04-16T04:42:45.365Z,8.13
2017-04-16T04:43:11.500Z,8.12
2017-04-16T04:43:37.581Z,8.06
2017-04-16T04:44:03.686Z,8.12
2017-04-16T04:44:29.793Z,8.1
2017-04-16T04:44:55.872Z,8.09
2017-04-16T04:45:21.976Z,8.1
2017-04-16T04:45:48.079Z,8.12
2017-04-16T04:46:14.158Z,8.19
2017-04-16T04:46:40.262Z,8.23
2017-04-16T04:47:06.344Z,8.23
2017-04-16T04:47:32.448Z,8.19
2017-04-16T04:47:58.571Z,8.16
2017-04-16T04:48:24.654Z,8.16
2017-04-16T04:48:50.816Z,8.16
2017-04-16T04:49:16.923Z,8.16
2017-04-16T04:49:43.041Z,8.3
2017-04-16T04:50:09.122Z,8.19
2017-04-16T04:50:35.225Z,8.15
2017-04-16T04:51:01.306Z,8.13
2017-04-16T04:51:27.383Z,8.13
2017-04-16T04:51:53.503Z,8.1
2017-04-16T04:52:19.606Z,8.16
2017-04-16T04:52:45.709Z,8.16
2017-04-16T04:53:11.813Z,8.16
2017-04-16T04:53:37.914Z,8.16
2017-04-16T04:54:04.022Z,8.16
2017-04-16T04:54:30.102Z,8.12
2017-04-16T04:54:56.182Z,8.15
2017-04-16T04:55:22.285Z,8.18
2017-04-16T04:55:48.368Z,8.23
2017-04-16T04:56:14.495Z,8.18
2017-04-16T04:56:40.610Z,8.16
2017-04-16T04:57:06.712Z,8.15
2017-04-16T04:57:32.796Z,8.19
2017-04-16T04:57:58.898Z,8.2
2017-04-16T04:58:25.022Z,8.16
2017-04-16T04:58:51.102Z,8.27
2017-04-16T04:59:17.205Z,8.3
2017-04-16T04:59:43.286Z,8.3
2017-04-16T05:00:09.389Z,8.3
2017-04-16T05:00:35.470Z,8.33
2017-04-16T05:01:01.742Z,8.37
2017-04-16T05:01:27.894Z,8.31
2017-04-16T05:01:53.974Z,8.28
2017-04-16T05:02:20.167Z,8.28
2017-04-16T05:02:46.275Z,8.31
2017-04-16T05:03:12.381Z,8.38
2017-04-16T05:03:38.534Z,8.3
2017-04-16T05:04:04.640Z,8.33
2017-04-16T05:04:30.770Z,8.34
2017-04-16T05:04:56.898Z,8.28
2017-04-16T05:05:23.026Z,8.33
2017-04-16T05:05:49.133Z,8.3
2017-04-16T05:06:15.213Z,8.33
2017-04-16T05:06:41.317Z,8.31
2017-04-16T05:07:07.402Z,8.27
2017-04-16T05:07:33.524Z,8.34
2017-04-16T05:07:59.711Z,8.36
2017-04-16T05:08:25.862Z,8.36
2017-04-16T05:08:52.011Z,8.41
2017-04-16T05:09:18.161Z,8.38
2017-04-16T05:09:44.267Z,8.41
2017-04-16T05:10:10.347Z,8.36
2017-04-16T05:10:36.425Z,8.36
2017-04-16T05:11:02.505Z,8.38
2017-04-16T05:11:28.702Z,8.42
2017-04-16T05:11:54.806Z,8.48
2017-04-16T05:12:20.937Z,8.37
2017-04-16T05:12:47.066Z,8.45
2017-04-16T05:13:13.199Z,8.33
2017-04-16T05:13:39.329Z,8.37
2017-04-16T05:14:05.431Z,8.42
2017-04-16T05:14:31.557Z,8.36
2017-04-16T05:14:57.641Z,8.44
2017-04-16T05:15:23.743Z,8.42
2017-04-16T05:15:49.846Z,8.37
2017-04-16T05:16:15.970Z,8.46
2017-04-16T05:16:42.050Z,8.48
2017-04-16T05:17:08.133Z,8.51
2017-04-16T05:17:34.258Z,8.49
2017-04-16T05:18:00.451Z,8.48
2017-04-16T05:18:26.532Z,8.52
2017-04-16T05:18:52.659Z,8.56
2017-04-16T05:19:18.786Z,8.55
2017-04-16T05:19:44.867Z,8.63
2017-04-16T05:20:10.973Z,8.52
2017-04-16T05:20:37.052Z,8.6
2017-04-16T05:21:03.135Z,8.66
2017-04-16T05:21:29.306Z,8.6
2017-04-16T05:21:55.387Z,8.6
2017-04-16T05:22:21.470Z,8.52
2017-04-16T05:22:47.552Z,8.64
2017-04-16T05:23:13.680Z,8.6
2017-04-16T05:23:39.762Z,8.63
2017-04-16T05:24:05.864Z,8.58
2017-04-16T05:24:31.946Z,8.64
2017-04-16T05:24:58.225Z,8.6
2017-04-16T05:25:24.330Z,8.61
2017-04-16T05:25:50.434Z,8.67
2017-04-16T05:26:16.515Z,8.61
2017-04-16T05:26:42.617Z,8.49
2017-04-16T05:27:08.720Z,8.56
2017-04-16T05:27:34.824Z,8.63
2017-04-16T05:28:00.950Z,8.66
2017-04-16T05:28:27.057Z,8.61
2017-04-16T05:28:53.206Z,8.64
2017-04-16T05:29:19.335Z,8.63
2017-04-16T05:29:45.418Z,8.56
2017-04-16T05:30:11.524Z,8.49
2017-04-16T05:30:37.605Z,8.63
2017-04-16T05:31:03.681Z,8.58
2017-04-16T05:31:29.833Z,8.63
2017-04-16T05:31:55.915Z,8.58
2017-04-16T05:32:21.998Z,8.64
2017-04-16T05:32:48.147Z,8.64
2017-04-16T05:33:14.299Z,8.63
2017-04-16T05:33:40.406Z,8.64
2017-04-16T05:34:06.486Z,8.66
2017-04-16T05:34:32.613Z,8.61
2017-04-16T05:34:58.885Z,8.71
2017-04-16T05:35:24.988Z,8.69
2017-04-16T05:35:51.067Z,8.71
2017-04-16T05:36:17.356Z,8.7
2017-04-16T05:36:43.440Z,8.64
2017-04-16T05:37:09.521Z,8.76
2017-04-16T05:37:35.649Z,8.78
2017-04-16T05:38:01.756Z,8.82
2017-04-16T05:38:27.857Z,8.82
2017-04-16T05:38:53.962Z,8.85
2017-04-16T05:39:20.237Z,8.81
2017-04-16T05:39:46.365Z,8.81
2017-04-16T05:40:12.471Z,8.84
2017-04-16T05:40:38.569Z,8.89
2017-04-16T05:41:04.649Z,8.88
2017-04-16T05:41:30.775Z,8.89
2017-04-16T05:41:56.855Z,8.94
2017-04-16T05:42:22.937Z,8.89
2017-04-16T05:42:49.090Z,8.99
2017-04-16T05:43:15.214Z,8.85
2017-04-16T05:43:41.351Z,8.82
2017-04-16T05:44:07.441Z,8.85
2017-04-16T05:44:33.547Z,8.97
2017-04-16T05:44:59.628Z,8.92
2017-04-16T05:45:25.706Z,8.92
2017-04-16T05:45:51.857Z,8.87
2017-04-16T05:46:17.938Z,8.82
2017-04-16T05:46:44.022Z,9
2017-04-16T05:47:10.103Z,8.97
2017-04-16T05:47:36.186Z,8.95
2017-04-16T05:48:02.288Z,8.91
2017-04-16T05:48:28.395Z,8.95
2017-04-16T05:48:54.568Z,8.99
2017-04-16T05:49:20.671Z,8.85
2017-04-16T05:49:46.799Z,8.97
2017-04-16T05:50:12.905Z,8.95